Wright, Minnesota
Current Conditions -  °F | °C
As of 12:46 PM on Thursday 30 Oct 2014 (Local Time) from KHZX Reporting Station
Overcast Overcast  
Wind Chill: 32°   Ceiling: 2000
Heat Index: 39°   Visibility: 10mi
Dew Point: 34°   Wind: 13mph
Humidity: 81%   Direction: 310°NW
Pressure: 30.13"   Gusts: NA
Location:  46.67°N, 93.01°W
Report Text: KHZX 301746Z AUTO 31011KT 10SM BKN020 OVC026 04/01 A3013 RMK AO2
Loading
Personal Weather Stations






























Interactive Weather Map
Tropical Storm Tracking
New forecast layout! Learn more

10-Day Weather Forecast

Advertisements
Track Severe Weather on mobile